首页
METAR-TAF:

METAR-TAF

机场 :

Slidell Airport

斯莱德尔, 路易斯安那州, 美国

纬度: 30-20-35N, 经度: 089-49-19W, 海拔: 9米

当前天气观测

该预报发布于35分钟前的15:53 UTC
风速7节,风向
温度 22°C
湿度 50%
气压 1019 hPa
能見度: 16.1公里
天空无云

METAR: KASD 021553Z AUTO 10007KT 10SM CLR 22/11 A3009 RMK AO2 SLP187 T02220106

时间: 11:28 (16:28 UTC)

预报

该预报发布于5小时和8分钟前的11:20 UTC
预报有效从02日的 12点(UTC)到 03日的 12点(UTC)
风速节,风向
能見度: 10公里
多云层高于25000英尺
从 02日的 1700点(UTC)
风速6节,风向东转东南
能見度: 10公里
散云层高于25000英尺
从 02日的 2100点(UTC)
风速7节,风向东南
能見度: 10公里
多云层高于25000英尺

TAF: KASD 021120Z 0212/0312 00000KT P6SM BKN250 FM021700 11006KT P6SM SCT250 FM022100 14007KT P6SM BKN250

超过4000个机场的气象观测和天气预报(METAR&TAF报告)。

可查询的气象台以黄色和红色小点在地图上表示。

将鼠标移到小点上方,可查看气象台名称。

然后点击查看天气观测和预报。

如需切换地图:点击带黑十字的绿色按钮放大地图;点击带横线的绿色按钮缩小地图;或者点击绿色箭头查看邻近地区的地图。


METAR-TAF: